Time;durP1;ratioP1;P1;durP2;ratioP2;P2;SDS_P1;SDS_P2;PMS_P1;PMS_P2;Temp;Humidity;BMP_temperature;BMP_pressure;BME280_temperature;BME280_humidity;BME280_pressure;Samples;Min_cycle;Max_cycle;Signal;HPM_P1;HPM_P2
2021/12/08 00:03:42;;;;;;;6.6;2.7;;;;;;;;;;;;;-82
2021/12/08 00:04:54;;;;;;;;;;;;;;;3.46;92.76074;99126.7;;;;-81
2021/12/08 00:10:03;;;;;;;;;;;;;;;3.47;92.81641;99115.5;;;;-82
2021/12/08 00:14:53;;;;;;;;;;;;;;;3.49;92.75391;99127;;;;-80
2021/12/08 00:20:00;;;;;;;;;;;;;;;3.51;92.85742;99135.52;;;;-81
2021/12/08 00:24:54;;;;;;;;;;;;;;;3.52;92.83887;99131.48;;;;-81
2021/12/08 00:29:53;;;;;;;;;;;;;;;3.55;92.83203;99138.02;;;;-81
2021/12/08 00:33:40;;;;;;;7.9;3;;;;;;;;;;;;;-82
2021/12/08 00:34:53;;;;;;;;;;;;;;;3.56;92.82324;99125.16;;;;-81
2021/12/08 00:39:54;;;;;;;;;;;;;;;3.57;92.77344;99114.09;;;;-80
2021/12/08 00:44:53;;;;;;;;;;;;;;;3.58;92.81836;99100.42;;;;-81
2021/12/08 00:49:53;;;;;;;;;;;;;;;3.61;92.93457;99106.24;;;;-81
2021/12/08 00:54:53;;;;;;;;;;;;;;;3.63;92.87207;99109.41;;;;-81
2021/12/08 00:59:53;;;;;;;;;;;;;;;3.67;92.95898;99099.66;;;;-81
2021/12/08 01:03:38;;;;;;;7;3.1;;;;;;;;;;;;;-82
2021/12/08 01:04:55;;;;;;;;;;;;;;;3.69;92.94141;99085.14;;;;-82
2021/12/08 01:09:53;;;;;;;;;;;;;;;3.73;92.91504;99103.81;;;;-80
2021/12/08 01:14:53;;;;;;;;;;;;;;;3.76;92.90137;99115.9;;;;-81
2021/12/08 01:19:53;;;;;;;;;;;;;;;3.78;92.83984;99113.26;;;;-82
2021/12/08 01:24:54;;;;;;;;;;;;;;;3.82;93.00195;99104.74;;;;-81
2021/12/08 01:29:53;;;;;;;;;;;;;;;3.86;93.09375;99113.46;;;;-82
2021/12/08 01:33:37;;;;;;;7;3.7;;;;;;;;;;;;;-82
2021/12/08 01:34:53;;;;;;;;;;;;;;;3.88;92.95898;99120.94;;;;-82
2021/12/08 01:39:53;;;;;;;;;;;;;;;3.91;93.00879;99132.89;;;;-81
2021/12/08 01:49:53;;;;;;;;;;;;;;;3.96;93.01758;99146.45;;;;-82
2021/12/08 01:54:55;;;;;;;;;;;;;;;3.98;93.05664;99145.38;;;;-81
2021/12/08 01:59:53;;;;;;;;;;;;;;;4;92.99512;99149;;;;-82
2021/12/08 02:03:36;;;;;;;8.2;4.2;;;;;;;;;;;;;-82
2021/12/08 02:04:53;;;;;;;;;;;;;;;4.01;93.11621;99150.34;;;;-82
2021/12/08 02:09:53;;;;;;;;;;;;;;;4.03;93.15527;99146.63;;;;-82
2021/12/08 02:14:53;;;;;;;;;;;;;;;4.04;93.17871;99151.45;;;;-81
2021/12/08 02:19:53;;;;;;;;;;;;;;;4.06;93.19141;99163.19;;;;-80
2021/12/08 02:24:53;;;;;;;;;;;;;;;4.07;93.1084;99169.33;;;;-81
2021/12/08 02:29:59;;;;;;;;;;;;;;;4.09;93.17578;99187.75;;;;-80
2021/12/08 02:49:53;;;;;;;;;;;;;;;4.17;93.19531;99182.73;;;;-80
2021/12/08 02:54:54;;;;;;;;;;;;;;;4.19;93.17773;99184.72;;;;-80
2021/12/08 02:59:53;;;;;;;;;;;;;;;4.21;93.19238;99180.73;;;;-80
2021/12/08 03:03:34;;;;;;;10.3;4.9;;;;;;;;;;;;;-81
2021/12/08 03:04:53;;;;;;;;;;;;;;;4.24;93.32031;99179.05;;;;-80
2021/12/08 03:09:53;;;;;;;;;;;;;;;4.26;93.28906;99180.81;;;;-80
2021/12/08 03:14:53;;;;;;;;;;;;;;;4.26;93.20215;99183.91;;;;-81
2021/12/08 03:19:59;;;;;;;;;;;;;;;4.27;93.23828;99186.36;;;;-82
2021/12/08 03:24:54;;;;;;;;;;;;;;;4.27;93.20605;99199.89;;;;-81
2021/12/08 03:29:57;;;;;;;;;;;;;;;4.27;93.23828;99197.96;;;;-82
2021/12/08 03:33:33;;;;;;;8.7;3.3;;;;;;;;;;;;;-82
2021/12/08 03:34:54;;;;;;;;;;;;;;;4.27;93.2168;99196.98;;;;-81
2021/12/08 03:39:54;;;;;;;;;;;;;;;4.26;93.12793;99199.79;;;;-82
2021/12/08 03:44:54;;;;;;;;;;;;;;;4.25;93.12598;99203.45;;;;-81
2021/12/08 03:49:55;;;;;;;;;;;;;;;4.24;93.04785;99209.36;;;;-81
2021/12/08 03:54:53;;;;;;;;;;;;;;;4.23;92.99023;99208.19;;;;-82
2021/12/08 03:59:54;;;;;;;;;;;;;;;4.22;92.8252;99219.42;;;;-81
2021/12/08 04:03:33;;;;;;;3.4;1.3;;;;;;;;;;;;;-82
2021/12/08 04:04:53;;;;;;;;;;;;;;;4.2;92.82129;99226.2;;;;-81
2021/12/08 04:09:54;;;;;;;;;;;;;;;4.19;92.7959;99232.45;;;;-81
2021/12/08 04:14:56;;;;;;;;;;;;;;;4.17;92.72852;99230.94;;;;-80
2021/12/08 04:19:54;;;;;;;;;;;;;;;4.16;92.84375;99246.16;;;;-81
2021/12/08 04:24:54;;;;;;;;;;;;;;;4.14;92.80762;99247.07;;;;-81
2021/12/08 04:29:53;;;;;;;;;;;;;;;4.12;92.8252;99245.92;;;;-81
2021/12/08 04:33:33;;;;;;;6.5;2.9;;;;;;;;;;;;;-82
2021/12/08 04:34:57;;;;;;;;;;;;;;;4.11;92.75879;99243.05;;;;-81
2021/12/08 04:40:04;;;;;;;;;;;;;;;4.12;92.75977;99246.41;;;;-84
2021/12/08 04:45:01;;;;;;;;;;;;;;;4.14;92.77441;99254.65;;;;-80
2021/12/08 05:04:03;;;;;;;7.9;2.6;;;;;;;;;;;;;-82
2021/12/08 05:05:05;;;;;;;;;;;;;;;4.08;92.77441;99246.63;;;;-81
2021/12/08 05:09:53;;;;;;;;;;;;;;;4.05;92.69238;99275.56;;;;-81
2021/12/08 05:14:56;;;;;;;;;;;;;;;4.01;92.63867;99262.23;;;;-82
2021/12/08 05:19:56;;;;;;;;;;;;;;;3.99;92.62402;99268.69;;;;-81
2021/12/08 05:24:55;;;;;;;;;;;;;;;3.96;92.58398;99289.64;;;;-81
2021/12/08 05:29:55;;;;;;;;;;;;;;;3.91;92.45508;99285.77;;;;-81
2021/12/08 05:33:29;;;;;;;8.6;2.4;;;;;;;;;;;;;-82
2021/12/08 05:34:53;;;;;;;;;;;;;;;3.87;92.47754;99278.34;;;;-81
2021/12/08 05:39:53;;;;;;;;;;;;;;;3.84;92.48242;99276.7;;;;-83
2021/12/08 05:44:53;;;;;;;;;;;;;;;3.81;92.4873;99272.18;;;;-81
2021/12/08 05:49:54;;;;;;;;;;;;;;;3.78;92.39453;99289.8;;;;-81
2021/12/08 05:54:53;;;;;;;;;;;;;;;3.75;92.33496;99317.92;;;;-81
2021/12/08 05:59:54;;;;;;;;;;;;;;;3.72;92.27246;99324.34;;;;-81
2021/12/08 06:03:29;;;;;;;7.9;2;;;;;;;;;;;;;-81
2021/12/08 06:04:53;;;;;;;;;;;;;;;3.68;92.17773;99333.1;;;;-81
2021/12/08 06:09:54;;;;;;;;;;;;;;;3.65;92.14844;99328.28;;;;-81
2021/12/08 06:14:55;;;;;;;;;;;;;;;3.61;92.09766;99333.78;;;;-81
2021/12/08 06:19:56;;;;;;;;;;;;;;;3.59;92.03906;99341.47;;;;-81
2021/12/08 06:24:56;;;;;;;;;;;;;;;3.54;91.96484;99346.27;;;;-80
2021/12/08 06:30:02;;;;;;;;;;;;;;;3.52;91.95898;99332.3;;;;-81
2021/12/08 06:33:27;;;;;;;6.6;1.4;;;;;;;;;;;;;-81
2021/12/08 06:34:56;;;;;;;;;;;;;;;3.49;91.99609;99332.34;;;;-80
2021/12/08 06:39:57;;;;;;;;;;;;;;;3.47;91.95801;99340.19;;;;-80
2021/12/08 06:44:55;;;;;;;;;;;;;;;3.44;91.94336;99343.27;;;;-80
2021/12/08 06:49:55;;;;;;;;;;;;;;;3.43;91.95215;99360.52;;;;-82
2021/12/08 06:54:55;;;;;;;;;;;;;;;3.42;91.96973;99341.06;;;;-81
2021/12/08 07:00:01;;;;;;;;;;;;;;;3.4;91.8916;99343.54;;;;-81
2021/12/08 07:03:42;;;;;;;8.8;1.7;;;;;;;;;;;;;-82
2021/12/08 07:09:57;;;;;;;;;;;;;;;3.35;91.81543;99350.03;;;;-81
2021/12/08 07:14:56;;;;;;;;;;;;;;;3.33;91.7793;99353.99;;;;-81
2021/12/08 07:20:03;;;;;;;;;;;;;;;3.31;91.7627;99352.34;;;;-82
2021/12/08 07:24:53;;;;;;;;;;;;;;;3.28;91.72461;99361.95;;;;-81
2021/12/08 07:29:53;;;;;;;;;;;;;;;3.25;91.70703;99382.47;;;;-81
2021/12/08 07:33:26;;;;;;;6.2;1.4;;;;;;;;;;;;;-81
2021/12/08 07:34:56;;;;;;;;;;;;;;;3.21;91.68848;99389.59;;;;-81
2021/12/08 07:39:57;;;;;;;;;;;;;;;3.2;91.66309;99397.02;;;;-81
2021/12/08 07:44:56;;;;;;;;;;;;;;;3.17;91.67871;99398.42;;;;-81
2021/12/08 07:49:55;;;;;;;;;;;;;;;3.14;91.6709;99404.83;;;;-81
2021/12/08 07:54:54;;;;;;;;;;;;;;;3.13;91.70215;99399.23;;;;-82
2021/12/08 07:59:55;;;;;;;;;;;;;;;3.11;91.6543;99408.52;;;;-82
2021/12/08 08:03:25;;;;;;;6.5;1.6;;;;;;;;;;;;;-81
2021/12/08 08:04:54;;;;;;;;;;;;;;;3.08;91.68164;99421.99;;;;-82
2021/12/08 08:08:49;;;;;;;;;;;;;;;3.08;91.6709;99410.16;;;;-79
2021/12/08 08:13:47;;;;;;;;;;;;;;;3.08;91.66016;99414.33;;;;-81
2021/12/08 08:18:55;;;;;;;;;;;;;;;3.08;91.6377;99406.86;;;;-80
2021/12/08 08:23:50;;;;;;;;;;;;;;;3.08;91.6709;99406.67;;;;-80
2021/12/08 08:28:50;;;;;;;;;;;;;;;3.09;91.63965;99413.59;;;;-81
2021/12/08 08:33:23;;;;;;;5.7;1.7;;;;;;;;;;;;;-81
2021/12/08 08:33:47;;;;;;;;;;;;;;;3.09;91.5752;99416.84;;;;-81
2021/12/08 08:38:50;;;;;;;;;;;;;;;3.1;91.63086;99428.13;;;;-81
2021/12/08 08:43:52;;;;;;;;;;;;;;;3.11;91.55664;99429.38;;;;-81
2021/12/08 08:48:49;;;;;;;;;;;;;;;3.1;91.55664;99435.13;;;;-81
2021/12/08 08:53:50;;;;;;;;;;;;;;;3.12;91.62598;99437.81;;;;-81
2021/12/08 08:58:48;;;;;;;;;;;;;;;3.18;91.56152;99437.91;;;;-80
2021/12/08 09:03:26;;;;;;;7.1;1.9;;;;;;;;;;;;;-81
2021/12/08 09:03:49;;;;;;;;;;;;;;;3.24;91.49707;99446.33;;;;-82
2021/12/08 09:08:48;;;;;;;;;;;;;;;3.28;91.43164;99446.44;;;;-82
2021/12/08 09:13:51;;;;;;;;;;;;;;;3.33;91.37793;99447.69;;;;-82
2021/12/08 09:18:52;;;;;;;;;;;;;;;3.37;91.27734;99451.86;;;;-81
2021/12/08 09:23:50;;;;;;;;;;;;;;;3.43;91.19336;99455.9;;;;-81
2021/12/08 09:28:50;;;;;;;;;;;;;;;3.46;91.1748;99455.39;;;;-83
2021/12/08 09:33:23;;;;;;;7.6;1.9;;;;;;;;;;;;;-83
2021/12/08 09:33:52;;;;;;;;;;;;;;;3.48;91.20215;99458.58;;;;-83
2021/12/08 09:38:56;;;;;;;;;;;;;;;3.52;91.13672;99461.23;;;;-83
2021/12/08 09:43:49;;;;;;;;;;;;;;;3.56;90.98145;99462.36;;;;-80
2021/12/08 09:48:48;;;;;;;;;;;;;;;3.64;90.86621;99439.64;;;;-80
2021/12/08 09:53:47;;;;;;;;;;;;;;;3.69;90.85449;99464.91;;;;-81
2021/12/08 09:58:47;;;;;;;;;;;;;;;3.7;90.8252;99465.12;;;;-82
2021/12/08 10:03:19;;;;;;;4.8;1.9;;;;;;;;;;;;;-80
2021/12/08 10:03:47;;;;;;;;;;;;;;;3.72;90.79688;99478.84;;;;-81
2021/12/08 10:08:50;;;;;;;;;;;;;;;3.73;90.7334;99478.03;;;;-81
2021/12/08 10:13:48;;;;;;;;;;;;;;;3.79;90.64941;99496.13;;;;-81
2021/12/08 10:18:51;;;;;;;;;;;;;;;3.79;90.64941;99507.66;;;;-81
2021/12/08 10:23:48;;;;;;;;;;;;;;;3.81;90.66406;99513.88;;;;-81
2021/12/08 10:28:51;;;;;;;;;;;;;;;3.86;90.72754;99516.09;;;;-82
2021/12/08 10:33:48;;;;;;;7.4;2.2;;;;;;;;;;;;;-81
2021/12/08 10:34:21;;;;;;;;;;;;;;;3.89;90.73535;99524.25;;;;-81
2021/12/08 10:38:47;;;;;;;;;;;;;;;3.96;90.6748;99533.42;;;;-81
2021/12/08 10:43:58;;;;;;;;;;;;;;;4.02;90.83789;99526.96;;;;-83
2021/12/08 10:48:49;;;;;;;;;;;;;;;4.08;90.44922;99526.13;;;;-82
2021/12/08 10:58:50;;;;;;;;;;;;;;;4.2;90.23535;99531.23;;;;-82
2021/12/08 11:03:17;;;;;;;7.5;2.9;;;;;;;;;;;;;-81
2021/12/08 11:03:47;;;;;;;;;;;;;;;4.23;90.23047;99519.69;;;;-81
2021/12/08 11:08:54;;;;;;;;;;;;;;;4.28;90.20898;99535.3;;;;-81
2021/12/08 11:13:48;;;;;;;;;;;;;;;4.3;90.18066;99536.53;;;;-81
2021/12/08 11:18:50;;;;;;;;;;;;;;;4.34;89.94824;99543.77;;;;-80
2021/12/08 11:23:49;;;;;;;;;;;;;;;4.4;89.88574;99527.59;;;;-81
2021/12/08 11:28:47;;;;;;;;;;;;;;;4.49;89.71094;99525.81;;;;-81
2021/12/08 11:33:26;;;;;;;8.6;3.2;;;;;;;;;;;;;-81
2021/12/08 11:33:59;;;;;;;;;;;;;;;4.52;89.30273;99513.67;;;;-81
2021/12/08 11:38:51;;;;;;;;;;;;;;;4.55;88.91504;99516.79;;;;-82
2021/12/08 11:43:56;;;;;;;;;;;;;;;4.66;88.06641;99525.14;;;;-84
2021/12/08 11:49:00;;;;;;;;;;;;;;;4.66;88.28613;99538.65;;;;-82
2021/12/08 11:59:02;;;;;;;;;;;;;;;4.74;88.19434;99531.27;;;;-82
2021/12/08 12:03:15;;;;;;;7.8;2.8;;;;;;;;;;;;;-83
2021/12/08 12:03:54;;;;;;;;;;;;;;;4.73;87.91797;99545.84;;;;-83
2021/12/08 12:08:55;;;;;;;;;;;;;;;4.78;87.81836;99546.98;;;;-84
2021/12/08 12:13:49;;;;;;;;;;;;;;;4.78;88.02734;99546.62;;;;-82
2021/12/08 12:19:03;;;;;;;;;;;;;;;4.82;87.81641;99555.23;;;;-82
2021/12/08 12:23:58;;;;;;;;;;;;;;;4.82;87.7207;99541.8;;;;-81
2021/12/08 12:29:10;;;;;;;;;;;;;;;4.85;87.56055;99542.92;;;;-83
2021/12/08 12:33:27;;;;;;;6.7;3.1;;;;;;;;;;;;;-82
2021/12/08 12:33:48;;;;;;;;;;;;;;;4.85;87.55176;99542.36;;;;-82
2021/12/08 12:38:52;;;;;;;;;;;;;;;4.83;87.6875;99555.2;;;;-82
2021/12/08 12:43:49;;;;;;;;;;;;;;;4.81;87.79297;99559.78;;;;-81
2021/12/08 12:49:04;;;;;;;;;;;;;;;4.78;87.83984;99564.8;;;;-82
2021/12/08 12:54:01;;;;;;;;;;;;;;;4.78;88.09082;99562.83;;;;-82
2021/12/08 13:03:16;;;;;;;8.8;2.7;;;;;;;;;;;;;-82
2021/12/08 13:08:03;;;;;;;;;;;;;;;4.74;87.86719;99577.04;;;;-82
2021/12/08 13:12:52;;;;;;;;;;;;;;;4.73;87.9502;99596.45;;;;-83
2021/12/08 13:18:07;;;;;;;;;;;;;;;4.71;87.96875;99618.45;;;;-81
2021/12/08 13:23:09;;;;;;;;;;;;;;;4.68;88.06152;99628.21;;;;-82
2021/12/08 13:27:56;;;;;;;;;;;;;;;4.67;88.19043;99635.2;;;;-83
2021/12/08 13:32:57;;;;;;;;;;;;;;;4.66;88.2627;99630.91;;;;-83
2021/12/08 13:33:22;;;;;;;7.9;2.9;;;;;;;;;;;;;-83
2021/12/08 13:38:05;;;;;;;;;;;;;;;4.66;88.37305;99622.77;;;;-83
2021/12/08 13:52:19;;;;;;;;;;;;;;;4.63;88.60547;99650.51;;;;-83
2021/12/08 13:57:10;;;;;;;;;;;;;;;4.59;88.63965;99651.33;;;;-83
2021/12/08 14:02:21;;;;;;;;;;;;;;;4.54;88.58691;99659.8;;;;-82
2021/12/08 14:03:18;;;;;;;6.2;2.6;;;;;;;;;;;;;-82
2021/12/08 14:08:14;;;;;;;;;;;;;;;4.51;88.72461;99669.98;;;;-83
2021/12/08 14:13:24;;;;;;;;;;;;;;;4.48;88.7168;99678.02;;;;-83
2021/12/08 14:18:26;;;;;;;;;;;;;;;4.46;88.74609;99682.09;;;;-83
2021/12/08 14:23:12;;;;;;;;;;;;;;;4.46;88.69141;99692.88;;;;-84
2021/12/08 14:28:24;;;;;;;;;;;;;;;4.46;88.77637;99694.67;;;;-82
2021/12/08 14:33:15;;;;;;;7.8;2.3;;;;;;;;;;;;;-82
2021/12/08 14:37:04;;;;;;;;;;;;;;;4.44;88.68555;99692.14;;;;-84
2021/12/08 14:41:36;;;;;;;;;;;;;;;4.42;88.68164;99704.64;;;;-83
2021/12/08 14:46:48;;;;;;;;;;;;;;;4.38;88.62012;99708.89;;;;-83
2021/12/08 14:55:47;;;;;;;;;;;;;;;4.33;88.83789;99724.63;;;;-82
2021/12/08 14:59:19;;;;;;;;;;;;;;;4.31;88.82324;99730.1;;;;-81
2021/12/08 15:03:12;;;;;;;10.7;2.8;;;;;;;;;;;;;-82
2021/12/08 15:04:10;;;;;;;;;;;;;;;4.3;88.86426;99733.66;;;;-82
2021/12/08 15:09:19;;;;;;;;;;;;;;;4.27;88.8584;99737.55;;;;-82
2021/12/08 15:14:15;;;;;;;;;;;;;;;4.23;88.86035;99739.95;;;;-83
2021/12/08 15:19:22;;;;;;;;;;;;;;;4.18;88.90527;99748.5;;;;-84
2021/12/08 15:24:45;;;;;;;;;;;;;;;4.14;88.92871;99757.38;;;;-82
2021/12/08 15:30:58;;;;;;;;;;;;;;;4.03;88.99512;99757.86;;;;-84
2021/12/08 15:33:18;;;;;;;5.3;2.4;;;;;;;;;;;;;-83
2021/12/08 15:35:45;;;;;;;;;;;;;;;4.02;89.09082;99772.21;;;;-83
2021/12/08 15:40:39;;;;;;;;;;;;;;;3.97;89.10352;99782.38;;;;-82
2021/12/08 15:45:36;;;;;;;;;;;;;;;3.94;89.16992;99781.2;;;;-82
2021/12/08 15:50:58;;;;;;;;;;;;;;;3.9;89.1748;99782.66;;;;-84
2021/12/08 15:55:49;;;;;;;;;;;;;;;3.86;89.21777;99787.05;;;;-82
2021/12/08 16:00:49;;;;;;;;;;;;;;;3.82;89.24512;99790.63;;;;-83
2021/12/08 16:03:12;;;;;;;7.3;2.8;;;;;;;;;;;;;-81
2021/12/08 16:13:10;;;;;;;;;;;;;;;3.75;89.14355;99804.09;;;;-80
2021/12/08 16:18:33;;;;;;;;;;;;;;;;;;;;;
2021/12/08 16:23:49;;;;;;;;;;;;;;;3.68;89.14941;99823.23;;;;-83
2021/12/08 16:31:55;;;;;;;;;;;;;;;3.65;89.22852;99826.38;;;;-84
2021/12/08 16:33:07;;;;;;;5.1;2.9;;;;;;;;;;;;;-84
2021/12/08 16:36:51;;;;;;;;;;;;;;;3.61;89.24316;99829.76;;;;-83
2021/12/08 16:46:52;;;;;;;;;;;;;;;3.53;89.30469;99818.69;;;;-83
2021/12/08 16:51:51;;;;;;;;;;;;;;;3.5;89.30957;99823.28;;;;-81
2021/12/08 16:56:58;;;;;;;;;;;;;;;3.46;89.36523;99827.59;;;;-82
2021/12/08 17:01:51;;;;;;;;;;;;;;;3.44;89.32715;99828.18;;;;-83
2021/12/08 17:03:09;;;;;;;7.4;2.6;;;;;;;;;;;;;-83
2021/12/08 17:06:48;;;;;;;;;;;;;;;3.39;89.28516;99831.02;;;;-83
2021/12/08 17:11:48;;;;;;;;;;;;;;;3.36;89.43066;99834.05;;;;-81
2021/12/08 17:16:48;;;;;;;;;;;;;;;3.32;89.44336;99840.86;;;;-82
2021/12/08 17:21:49;;;;;;;;;;;;;;;3.27;89.44238;99841.73;;;;-82
2021/12/08 17:26:53;;;;;;;;;;;;;;;3.24;89.43945;99841.56;;;;-81
2021/12/08 17:31:48;;;;;;;;;;;;;;;3.21;89.49609;99845.39;;;;-81
2021/12/08 17:33:06;;;;;;;6.4;2.4;;;;;;;;;;;;;-81
2021/12/08 17:36:50;;;;;;;;;;;;;;;3.19;89.49316;99844.22;;;;-83
2021/12/08 17:41:49;;;;;;;;;;;;;;;3.16;89.43262;99844.55;;;;-83
2021/12/08 17:46:52;;;;;;;;;;;;;;;3.13;89.51367;99848.27;;;;-84
2021/12/08 17:51:48;;;;;;;;;;;;;;;3.12;89.52148;99838.7;;;;-77
2021/12/08 17:56:48;;;;;;;;;;;;;;;3.1;89.50879;99852.73;;;;-83
2021/12/08 18:01:48;;;;;;;;;;;;;;;3.08;89.56738;99859.05;;;;-83
2021/12/08 18:03:04;;;;;;;8.1;3.4;;;;;;;;;;;;;-82
2021/12/08 18:06:48;;;;;;;;;;;;;;;3.06;89.49902;99864.51;;;;-82
2021/12/08 18:11:48;;;;;;;;;;;;;;;3.05;89.47363;99871.75;;;;-83
2021/12/08 18:16:50;;;;;;;;;;;;;;;3.02;89.5459;99876.53;;;;-83
2021/12/08 18:21:50;;;;;;;;;;;;;;;2.98;89.58984;99875.02;;;;-84
2021/12/08 18:26:48;;;;;;;;;;;;;;;2.95;89.70605;99882.88;;;;-83
2021/12/08 18:31:49;;;;;;;;;;;;;;;2.93;89.62402;99882.77;;;;-82
2021/12/08 18:33:04;;;;;;;7.8;3.1;;;;;;;;;;;;;-82
2021/12/08 18:36:55;;;;;;;;;;;;;;;2.88;89.53711;99886;;;;-81
2021/12/08 18:41:58;;;;;;;;;;;;;;;2.84;89.60547;99892.17;;;;-81
2021/12/08 18:46:52;;;;;;;;;;;;;;;2.79;89.55078;99907.16;;;;-82
2021/12/08 18:51:49;;;;;;;;;;;;;;;2.75;89.53223;99911.7;;;;-82
2021/12/08 18:56:52;;;;;;;;;;;;;;;2.71;89.57715;99923.64;;;;-83
2021/12/08 19:01:48;;;;;;;;;;;;;;;2.68;89.61426;99921.05;;;;-83
2021/12/08 19:03:06;;;;;;;8.4;3.4;;;;;;;;;;;;;-83
2021/12/08 19:06:49;;;;;;;;;;;;;;;2.67;89.85254;99924.59;;;;-83
2021/12/08 19:12:03;;;;;;;;;;;;;;;2.65;90.06348;99936.94;;;;-85
2021/12/08 19:16:50;;;;;;;;;;;;;;;2.63;89.91895;99944.25;;;;-84
2021/12/08 19:22:05;;;;;;;;;;;;;;;2.59;89.875;99949.45;;;;-84
2021/12/08 19:26:50;;;;;;;;;;;;;;;2.56;89.82813;99959.23;;;;-83
2021/12/08 19:31:50;;;;;;;;;;;;;;;2.52;89.90723;99970.8;;;;-82
2021/12/08 19:33:01;;;;;;;12;3.2;;;;;;;;;;;;;-82
2021/12/08 19:36:50;;;;;;;;;;;;;;;2.51;89.99219;99971.98;;;;-81
2021/12/08 19:41:51;;;;;;;;;;;;;;;2.49;90.02051;99973.58;;;;-82
2021/12/08 19:46:50;;;;;;;;;;;;;;;2.48;90.0166;99977.81;;;;-83
2021/12/08 19:51:53;;;;;;;;;;;;;;;2.43;90.04004;99982.97;;;;-82
2021/12/08 19:56:49;;;;;;;;;;;;;;;2.45;90.24902;99988.99;;;;-83
2021/12/08 20:01:49;;;;;;;;;;;;;;;2.45;90.19531;99998.5;;;;-82
2021/12/08 20:03:00;;;;;;;8.9;3.5;;;;;;;;;;;;;-83
2021/12/08 20:07:03;;;;;;;;;;;;;;;2.44;90.3125;100000.7;;;;-83
2021/12/08 20:11:59;;;;;;;;;;;;;;;2.45;90.33594;99992.47;;;;-82
2021/12/08 20:16:53;;;;;;;;;;;;;;;2.5;90.58496;99995.72;;;;-83
2021/12/08 20:21:49;;;;;;;;;;;;;;;2.51;90.44434;99995.57;;;;-84
2021/12/08 20:27:01;;;;;;;;;;;;;;;2.52;90.46973;99996.25;;;;-83
2021/12/08 20:31:48;;;;;;;;;;;;;;;2.52;90.57617;99999.08;;;;-83
2021/12/08 20:33:03;;;;;;;12.7;3.9;;;;;;;;;;;;;-83
2021/12/08 20:36:52;;;;;;;;;;;;;;;2.5;90.55273;100002.1;;;;-83
2021/12/08 20:41:54;;;;;;;;;;;;;;;2.48;90.54883;100007.1;;;;-85
2021/12/08 20:46:48;;;;;;;;;;;;;;;2.47;90.57715;100004.3;;;;-82
2021/12/08 20:52:00;;;;;;;;;;;;;;;2.42;90.50293;100008.9;;;;-82
2021/12/08 20:56:57;;;;;;;;;;;;;;;2.39;90.52832;100014.3;;;;-81
2021/12/08 21:02:01;;;;;;;;;;;;;;;2.37;90.45703;100018.2;;;;-82
2021/12/08 21:03:04;;;;;;;10.8;3.7;;;;;;;;;;;;;-81
2021/12/08 21:06:53;;;;;;;;;;;;;;;2.32;90.41504;100023.7;;;;-81
2021/12/08 21:12:00;;;;;;;;;;;;;;;2.28;90.36621;100031.3;;;;-81
2021/12/08 21:16:52;;;;;;;;;;;;;;;2.23;90.37402;100029.7;;;;-81
2021/12/08 21:21:51;;;;;;;;;;;;;;;2.2;90.35742;100034;;;;-82
2021/12/08 21:26:48;;;;;;;;;;;;;;;2.15;90.33789;100035.2;;;;-83
2021/12/08 21:31:48;;;;;;;;;;;;;;;2.11;90.33887;100030.5;;;;-83
2021/12/08 21:32:57;;;;;;;9;3.8;;;;;;;;;;;;;-82
2021/12/08 21:36:49;;;;;;;;;;;;;;;2.08;90.37793;100035.8;;;;-82
2021/12/08 21:41:47;;;;;;;;;;;;;;;2.04;90.40137;100041.4;;;;-83
2021/12/08 21:46:50;;;;;;;;;;;;;;;2.03;90.32129;100042.4;;;;-82
2021/12/08 21:51:48;;;;;;;;;;;;;;;1.99;90.33496;100048.1;;;;-82
2021/12/08 21:56:48;;;;;;;;;;;;;;;1.95;90.39063;100049.3;;;;-83
2021/12/08 22:01:48;;;;;;;;;;;;;;;1.93;90.45215;100057.2;;;;-83
2021/12/08 22:02:58;;;;;;;7.6;3.6;;;;;;;;;;;;;-82
2021/12/08 22:06:48;;;;;;;;;;;;;;;1.89;90.51074;100064;;;;-82
2021/12/08 22:11:53;;;;;;;;;;;;;;;1.87;90.47266;100065.5;;;;-82
2021/12/08 22:16:48;;;;;;;;;;;;;;;1.84;90.48633;100065.5;;;;-81
2021/12/08 22:21:50;;;;;;;;;;;;;;;1.81;90.46094;100073;;;;-82
2021/12/08 22:26:48;;;;;;;;;;;;;;;1.78;90.48633;100074;;;;-83
2021/12/08 22:31:48;;;;;;;;;;;;;;;1.75;90.46973;100078.3;;;;-80
2021/12/08 22:32:57;;;;;;;8.1;3.5;;;;;;;;;;;;;-83
2021/12/08 22:36:48;;;;;;;;;;;;;;;1.73;90.53027;100072.6;;;;-82
2021/12/08 22:44:15;;;;;;;;;;;;;;;1.7;90.4707;100071.7;;;;-82
2021/12/08 22:49:12;;;;;;;;;;;;;;;1.67;90.39844;100072.9;;;;-82
2021/12/08 22:54:07;;;;;;;;;;;;;;;1.63;90.46582;100070.3;;;;-82
2021/12/08 22:59:04;;;;;;;;;;;;;;;1.61;90.58105;100075.4;;;;-81
2021/12/08 23:02:54;;;;;;;9.9;3.6;;;;;;;;;;;;;-81
2021/12/08 23:04:05;;;;;;;;;;;;;;;1.6;90.6875;100079.9;;;;-82
2021/12/08 23:07:49;;;;;;;;;;;;;;;1.59;90.82324;100092.5;;;;-83
2021/12/08 23:12:47;;;;;;;;;;;;;;;1.6;90.86914;100088.3;;;;-81
2021/12/08 23:17:51;;;;;;;;;;;;;;;1.58;90.94238;100104.1;;;;-81
2021/12/08 23:22:47;;;;;;;;;;;;;;;1.58;91.07031;100105.8;;;;-82
2021/12/08 23:27:47;;;;;;;;;;;;;;;1.58;91.10449;100107.5;;;;-81
2021/12/08 23:34:41;;;;;;;;;;;;;;;1.59;91.22363;100107;;;;-82
2021/12/08 23:39:37;;;;;;;;;;;;;;;1.63;91.41699;100114.1;;;;-82
2021/12/08 23:44:35;;;;;;;;;;;;;;;1.63;91.30859;100108.4;;;;-81
2021/12/08 23:49:35;;;;;;;;;;;;;;;1.67;91.45898;100103.4;;;;-81
2021/12/08 23:54:35;;;;;;;;;;;;;;;1.69;91.55762;100111.8;;;;-81
2021/12/08 23:59:36;;;;;;;;;;;;;;;1.75;91.72266;100115.3;;;;-82
